createdAt,value
2023-04-14T00:02:06.375Z,29.08
2023-04-14T00:04:33.481Z,22.73
2023-04-14T00:07:00.536Z,18.90
2023-04-14T00:09:27.192Z,27.92
2023-04-14T00:11:53.806Z,21.90
2023-04-14T00:14:20.540Z,26.48
2023-04-14T00:16:47.280Z,19.73
2023-04-14T00:19:14.020Z,23.70
2023-04-14T00:21:41.127Z,22.00
2023-04-14T00:24:07.781Z,27.17
2023-04-14T00:26:34.406Z,21.08
2023-04-14T00:29:01.452Z,18.52
2023-04-14T00:31:28.425Z,20.80
2023-04-14T00:33:55.295Z,19.38
2023-04-14T00:36:23.081Z,18.52
2023-04-14T00:38:49.828Z,20.95
2023-04-14T00:41:16.480Z,21.08
2023-04-14T00:43:43.114Z,19.15
2023-04-14T00:46:09.919Z,17.60
2023-04-14T00:48:36.871Z,20.30
2023-04-14T00:51:04.117Z,16.17
2023-04-14T00:53:31.799Z,15.77
2023-04-14T00:55:59.661Z,16.15
2023-04-14T00:58:26.568Z,17.85
2023-04-14T01:00:55.663Z,16.15
2023-04-14T01:03:24.467Z,15.93
2023-04-14T01:05:51.550Z,19.90
2023-04-14T01:08:19.707Z,16.05
2023-04-14T01:10:55.276Z,16.25
2023-04-14T01:13:46.083Z,15.45
2023-04-14T01:16:30.319Z,21.50
2023-04-14T01:19:18.377Z,16.27
2023-04-14T01:21:49.758Z,20.45
2023-04-14T01:24:16.309Z,14.68
2023-04-14T01:26:45.254Z,19.58
2023-04-14T01:29:30.095Z,13.68
2023-04-14T01:34:44.867Z,17.15
2023-04-14T01:37:17.760Z,14.27
2023-04-14T01:39:52.918Z,12.88
2023-04-14T01:42:26.345Z,17.75
2023-04-14T01:44:58.402Z,16.42
2023-04-14T01:47:26.590Z,19.42
2023-04-14T01:49:54.025Z,14.02
2023-04-14T01:52:22.322Z,22.42
2023-04-14T01:54:51.629Z,16.15
2023-04-14T01:57:22.768Z,18.08
2023-04-14T01:59:53.488Z,15.70
2023-04-14T02:02:21.274Z,15.98
2023-04-14T02:04:49.206Z,14.25
2023-04-14T02:07:21.670Z,16.67
2023-04-14T02:09:49.550Z,14.18
2023-04-14T02:12:18.460Z,14.30
2023-04-14T02:14:47.243Z,16.50
2023-04-14T02:17:14.904Z,17.15
2023-04-14T02:19:45.035Z,19.63
2023-04-14T02:22:11.882Z,15.10
2023-04-14T02:24:38.560Z,20.67
2023-04-14T02:27:17.702Z,13.55
2023-04-14T02:29:51.244Z,15.55
2023-04-14T02:32:26.570Z,18.90
2023-04-14T02:35:04.482Z,25.23
2023-04-14T02:37:41.558Z,16.42
2023-04-14T02:40:22.193Z,15.38
2023-04-14T02:42:55.977Z,24.55
2023-04-14T02:45:27.378Z,18.58
2023-04-14T02:47:57.786Z,16.10
2023-04-14T02:50:27.445Z,19.38
2023-04-14T02:53:03.053Z,18.33
2023-04-14T02:55:35.678Z,21.63
2023-04-14T02:58:02.971Z,16.17
2023-04-14T03:00:33.141Z,19.20
2023-04-14T03:03:01.256Z,17.70
2023-04-14T03:05:29.587Z,25.00
2023-04-14T03:08:10.954Z,22.90
2023-04-14T03:10:39.654Z,21.92
2023-04-14T03:13:07.352Z,15.25
2023-04-14T03:15:36.079Z,13.88
2023-04-14T03:18:03.673Z,18.25
2023-04-14T03:20:31.440Z,15.20
2023-04-14T03:23:04.884Z,18.23
2023-04-14T03:25:37.848Z,15.95
2023-04-14T03:28:13.438Z,21.50
2023-04-14T03:30:47.763Z,19.98
2023-04-14T03:33:20.377Z,17.08
2023-04-14T03:35:47.983Z,12.70
2023-04-14T03:38:19.840Z,16.33
2023-04-14T03:40:48.945Z,17.20
2023-04-14T03:43:22.886Z,15.52
2023-04-14T03:45:56.806Z,15.75
2023-04-14T03:48:26.286Z,20.40
2023-04-14T03:50:55.294Z,19.65
2023-04-14T03:53:22.061Z,21.88
2023-04-14T03:55:51.386Z,21.48
2023-04-14T03:58:20.101Z,19.02
2023-04-14T04:00:49.075Z,20.98
2023-04-14T04:03:16.708Z,19.67
2023-04-14T04:05:44.461Z,15.55
2023-04-14T04:08:12.547Z,16.00
2023-04-14T04:10:39.496Z,16.10
2023-04-14T04:13:10.131Z,21.55
2023-04-14T04:15:39.014Z,20.40
2023-04-14T04:18:07.884Z,24.00
2023-04-14T04:20:38.384Z,22.60
2023-04-14T04:23:07.454Z,26.83
2023-04-14T04:25:40.466Z,28.65
2023-04-14T04:28:27.909Z,22.38
2023-04-14T04:30:58.958Z,25.35
2023-04-14T04:33:28.592Z,26.45
2023-04-14T04:35:57.104Z,25.73
2023-04-14T04:38:30.148Z,21.08
2023-04-14T04:40:57.013Z,19.90
2023-04-14T04:43:26.682Z,22.50
2023-04-14T04:46:34.264Z,19.67
2023-04-14T04:49:01.113Z,26.20
2023-04-14T04:51:28.687Z,28.80
2023-04-14T04:53:55.316Z,33.03
2023-04-14T04:56:22.164Z,29.25
2023-04-14T04:58:48.878Z,24.70
2023-04-14T05:01:16.669Z,30.10
2023-04-14T05:03:43.647Z,28.60
2023-04-14T05:06:10.273Z,33.08
2023-04-14T05:08:36.955Z,25.55
2023-04-14T05:11:03.711Z,31.88
2023-04-14T05:13:30.456Z,28.83
2023-04-14T05:16:05.034Z,24.77
2023-04-14T05:18:32.691Z,31.25
2023-04-14T05:21:03.669Z,23.33
2023-04-14T05:23:32.588Z,33.60
2023-04-14T05:26:14.654Z,25.27
2023-04-14T05:28:46.687Z,24.65
2023-04-14T05:31:13.851Z,28.02
2023-04-14T05:33:40.621Z,24.52
2023-04-14T05:36:07.758Z,29.23
2023-04-14T05:38:39.786Z,30.92
2023-04-14T05:41:07.590Z,38.15
2023-04-14T05:43:36.961Z,28.95
2023-04-14T05:46:03.944Z,33.63
2023-04-14T05:48:33.018Z,35.45
2023-04-14T05:50:59.654Z,30.70
2023-04-14T05:53:27.441Z,33.72
2023-04-14T05:55:57.121Z,31.48
2023-04-14T05:58:26.311Z,21.75
2023-04-14T06:00:53.165Z,24.92
2023-04-14T06:03:20.067Z,25.33
2023-04-14T06:05:48.093Z,38.88
2023-04-14T06:08:14.712Z,39.50
2023-04-14T06:10:41.330Z,25.50
2023-04-14T06:13:08.544Z,27.42
2023-04-14T06:15:35.251Z,22.67
2023-04-14T06:18:02.004Z,32.95
2023-04-14T06:20:31.417Z,29.58
2023-04-14T06:23:00.711Z,21.77
2023-04-14T06:25:27.373Z,28.00
2023-04-14T06:27:53.975Z,22.60
2023-04-14T06:30:20.675Z,27.25
2023-04-14T06:32:48.576Z,25.17
2023-04-14T06:35:29.726Z,28.48
2023-04-14T06:37:59.360Z,27.23
2023-04-14T06:40:26.010Z,25.77
2023-04-14T06:42:52.616Z,30.90
2023-04-14T06:45:19.272Z,38.08
2023-04-14T06:47:45.986Z,22.13
2023-04-14T06:50:13.041Z,22.05
2023-04-14T06:52:39.692Z,21.73
2023-04-14T06:55:06.648Z,20.88
2023-04-14T06:57:33.733Z,29.00
2023-04-14T07:00:00.375Z,45.72
2023-04-14T07:02:28.701Z,45.75
2023-04-14T07:04:55.928Z,42.70
2023-04-14T07:07:24.212Z,23.10
2023-04-14T07:09:51.369Z,31.50
2023-04-14T07:12:18.162Z,17.25
2023-04-14T07:14:51.668Z,20.58
2023-04-14T07:17:19.120Z,28.67
2023-04-14T07:19:46.339Z,29.30
2023-04-14T07:22:12.988Z,31.40
2023-04-14T07:24:39.803Z,34.10
2023-04-14T07:27:14.946Z,35.75
2023-04-14T07:29:42.120Z,36.03
2023-04-14T07:32:08.737Z,35.88
2023-04-14T07:34:35.684Z,37.17
2023-04-14T07:37:02.378Z,37.40
2023-04-14T07:39:29.404Z,36.83
2023-04-14T07:41:58.775Z,38.42
2023-04-14T07:44:26.172Z,38.30
2023-04-14T07:46:52.973Z,36.42
2023-04-14T07:49:19.614Z,37.40
2023-04-14T07:51:46.264Z,38.15
2023-04-14T07:54:12.908Z,38.25
2023-04-14T07:56:39.537Z,38.20
2023-04-14T07:59:06.184Z,39.05
2023-04-14T08:01:32.924Z,38.55
2023-04-14T08:03:59.619Z,40.13
2023-04-14T08:06:27.937Z,37.67
2023-04-14T08:08:54.595Z,37.42
2023-04-14T08:11:21.218Z,38.20
2023-04-14T08:13:49.760Z,36.70
2023-04-14T08:16:16.893Z,35.63
2023-04-14T08:18:43.800Z,33.28
2023-04-14T08:21:10.642Z,33.25
2023-04-14T08:23:37.571Z,31.75
2023-04-14T08:26:04.842Z,32.35
2023-04-14T08:28:31.565Z,34.47
2023-04-14T08:30:58.440Z,33.67
2023-04-14T08:33:25.184Z,33.00
2023-04-14T08:35:59.541Z,37.58
2023-04-14T08:38:28.422Z,33.03
2023-04-14T08:40:56.615Z,33.50
2023-04-14T08:43:23.579Z,32.92
2023-04-14T08:45:53.859Z,33.88
2023-04-14T08:48:24.316Z,34.08
2023-04-14T08:51:36.514Z,33.72
2023-04-14T08:54:15.385Z,34.75
2023-04-14T08:56:43.136Z,32.63
2023-04-14T08:59:11.416Z,37.22
2023-04-14T09:01:39.066Z,34.00
2023-04-14T09:04:07.318Z,34.72
2023-04-14T09:06:34.846Z,34.20
2023-04-14T09:09:08.631Z,33.75
2023-04-14T09:11:37.379Z,34.42
2023-04-14T09:14:04.798Z,34.50
2023-04-14T09:16:32.620Z,35.70
2023-04-14T09:19:06.671Z,36.20
2023-04-14T09:21:51.847Z,36.95
2023-04-14T09:24:23.647Z,34.55
2023-04-14T09:26:51.930Z,36.92
2023-04-14T09:29:18.621Z,42.03
2023-04-14T09:31:45.852Z,41.55
2023-04-14T09:34:18.171Z,42.30
2023-04-14T09:37:05.107Z,43.88
2023-04-14T09:39:32.846Z,46.47
2023-04-14T09:42:01.378Z,46.15
2023-04-14T09:44:28.466Z,44.10
2023-04-14T09:47:05.036Z,40.67
2023-04-14T09:49:32.996Z,43.38
2023-04-14T09:52:08.511Z,43.25
2023-04-14T09:54:36.049Z,42.95
2023-04-14T09:57:02.759Z,44.75
2023-04-14T09:59:33.964Z,39.03
2023-04-14T10:02:04.536Z,40.33
2023-04-14T10:04:31.304Z,41.03
2023-04-14T10:06:59.184Z,42.47
2023-04-14T10:09:29.822Z,41.72
2023-04-14T10:12:14.017Z,44.95
2023-04-14T10:14:41.953Z,44.13
2023-04-14T10:17:09.295Z,43.38
2023-04-14T10:19:37.637Z,43.33
2023-04-14T10:22:05.988Z,42.20
2023-04-14T10:24:33.305Z,43.47
2023-04-14T10:27:02.657Z,44.63
2023-04-14T10:29:30.840Z,43.15
2023-04-14T10:32:07.094Z,48.13
2023-04-14T10:34:35.283Z,47.70
2023-04-14T10:37:15.884Z,48.05
2023-04-14T10:39:42.918Z,48.47
2023-04-14T10:42:09.957Z,48.58
2023-04-14T10:44:36.728Z,50.17
2023-04-14T10:47:07.328Z,47.28
2023-04-14T10:49:39.154Z,51.00
2023-04-14T10:52:06.972Z,50.13
2023-04-14T10:55:07.524Z,50.42
2023-04-14T10:57:41.385Z,50.92
2023-04-14T11:00:29.911Z,51.70
2023-04-14T11:03:11.948Z,52.25
2023-04-14T11:05:48.485Z,51.97
2023-04-14T11:08:24.699Z,53.13
2023-04-14T11:11:01.460Z,50.55
2023-04-14T11:13:30.799Z,50.35
2023-04-14T11:16:02.572Z,50.65
2023-04-14T11:18:45.385Z,51.50
2023-04-14T11:21:16.970Z,51.97
2023-04-14T11:23:44.135Z,51.60
2023-04-14T11:26:13.352Z,50.90
2023-04-14T11:28:42.603Z,48.53
2023-04-14T11:31:11.947Z,53.85
2023-04-14T11:33:41.057Z,52.80
2023-04-14T11:36:09.662Z,48.75
2023-04-14T11:38:40.285Z,52.40
2023-04-14T11:41:07.635Z,50.58
2023-04-14T11:43:34.620Z,49.80
2023-04-14T11:46:04.608Z,47.22
2023-04-14T11:48:31.587Z,52.60
2023-04-14T11:51:03.266Z,50.92
2023-04-14T11:53:30.621Z,47.70
2023-04-14T11:55:57.562Z,55.60
2023-04-14T11:58:26.379Z,46.50
2023-04-14T12:00:55.998Z,48.92
2023-04-14T12:03:30.149Z,52.05
2023-04-14T12:06:03.032Z,59.22
2023-04-14T12:08:31.026Z,56.00
2023-04-14T12:10:58.024Z,58.80
2023-04-14T12:13:26.264Z,56.97
2023-04-14T12:15:54.155Z,56.47
2023-04-14T12:18:21.648Z,53.67
2023-04-14T12:20:53.599Z,48.13
2023-04-14T12:23:20.382Z,58.38
2023-04-14T12:25:50.558Z,55.78
2023-04-14T12:28:30.052Z,56.30
2023-04-14T12:31:02.140Z,54.40
2023-04-14T12:33:30.642Z,58.08
2023-04-14T12:36:09.640Z,52.38
2023-04-14T12:38:36.307Z,51.55
2023-04-14T12:41:02.985Z,53.65
2023-04-14T12:43:32.174Z,50.85
2023-04-14T12:45:59.630Z,50.53
2023-04-14T12:48:38.445Z,50.15
2023-04-14T12:51:18.700Z,45.53
2023-04-14T12:53:47.506Z,46.80
2023-04-14T12:56:19.386Z,54.35
2023-04-14T12:58:47.201Z,56.20
2023-04-14T13:01:19.199Z,55.42
2023-04-14T13:03:49.898Z,52.63
2023-04-14T13:06:21.569Z,52.70
2023-04-14T13:08:50.624Z,52.70
2023-04-14T13:11:19.026Z,57.28
2023-04-14T13:13:46.142Z,59.13
2023-04-14T13:16:19.210Z,59.35
2023-04-14T13:18:48.061Z,62.45
2023-04-14T13:21:15.099Z,59.38
2023-04-14T13:23:41.946Z,55.65
2023-04-14T13:26:08.924Z,64.25
2023-04-14T13:28:36.645Z,64.15
2023-04-14T13:31:03.269Z,61.72
2023-04-14T13:33:29.933Z,53.60
2023-04-14T13:35:57.200Z,53.33
2023-04-14T13:38:23.895Z,55.47
2023-04-14T13:40:50.849Z,52.53
2023-04-14T13:43:18.861Z,56.20
2023-04-14T13:45:46.607Z,55.90
2023-04-14T13:48:13.657Z,55.45
2023-04-14T13:50:40.725Z,56.53
2023-04-14T13:53:07.380Z,54.50
2023-04-14T13:55:35.829Z,55.08
2023-04-14T13:58:02.497Z,54.60
2023-04-14T14:00:29.206Z,55.85
2023-04-14T14:02:56.105Z,55.05
2023-04-14T14:05:22.925Z,54.83
2023-04-14T14:07:49.677Z,54.67
2023-04-14T14:10:16.501Z,54.08
2023-04-14T14:12:43.151Z,53.28
2023-04-14T14:15:10.405Z,52.72
2023-04-14T14:17:37.207Z,55.22
2023-04-14T14:20:04.208Z,55.33
2023-04-14T14:22:31.052Z,54.08
2023-04-14T14:25:10.779Z,55.08
2023-04-14T14:27:44.749Z,55.15
2023-04-14T14:30:11.866Z,53.85
2023-04-14T14:32:39.230Z,55.65
2023-04-14T14:35:06.335Z,55.60
2023-04-14T14:37:32.970Z,54.47
2023-04-14T14:39:59.593Z,52.45
2023-04-14T14:42:26.805Z,51.63
2023-04-14T14:44:53.749Z,53.88
2023-04-14T14:47:20.751Z,55.30
2023-04-14T14:49:58.967Z,57.22
2023-04-14T14:52:36.362Z,55.53
2023-04-14T14:55:04.392Z,55.53
2023-04-14T14:57:31.347Z,55.60
2023-04-14T14:59:58.511Z,57.05
2023-04-14T15:02:25.456Z,57.38
2023-04-14T15:04:53.141Z,55.38
2023-04-14T15:07:20.536Z,56.33
2023-04-14T15:09:47.325Z,54.85
2023-04-14T15:12:13.949Z,54.17
2023-04-14T15:14:40.664Z,54.08
2023-04-14T15:17:07.302Z,56.38
2023-04-14T15:19:34.042Z,54.78
2023-04-14T15:22:01.435Z,54.97
2023-04-14T15:24:28.677Z,53.45
2023-04-14T15:26:58.566Z,53.15
2023-04-14T15:29:26.828Z,52.88
2023-04-14T15:31:53.531Z,52.58
2023-04-14T15:34:21.144Z,52.42
2023-04-14T15:36:47.728Z,52.25
2023-04-14T15:39:14.339Z,52.05
2023-04-14T15:41:41.524Z,54.22
2023-04-14T15:44:08.127Z,53.67
2023-04-14T15:46:34.692Z,53.70
2023-04-14T15:49:02.202Z,53.85
2023-04-14T15:51:29.171Z,55.35
2023-04-14T15:53:55.824Z,54.47
2023-04-14T15:56:22.926Z,55.40
2023-04-14T15:58:49.801Z,51.78
2023-04-14T16:01:16.521Z,53.10
2023-04-14T16:03:43.351Z,54.30
2023-04-14T16:06:10.031Z,54.58
2023-04-14T16:08:37.072Z,53.05
2023-04-14T16:11:03.790Z,59.08
2023-04-14T16:13:30.540Z,54.40
2023-04-14T16:15:58.258Z,54.30
2023-04-14T16:18:24.935Z,64.20
2023-04-14T16:20:51.716Z,65.65
2023-04-14T16:23:18.354Z,63.40
2023-04-14T16:25:49.574Z,60.30
2023-04-14T16:28:16.500Z,62.17
2023-04-14T16:30:43.422Z,62.85
2023-04-14T16:33:10.299Z,60.78
2023-04-14T16:35:37.114Z,58.60
2023-04-14T16:38:08.016Z,61.58
2023-04-14T16:40:35.827Z,61.55
2023-04-14T16:43:03.013Z,60.53
2023-04-14T16:45:33.009Z,51.83
2023-04-14T16:47:59.962Z,60.40
2023-04-14T16:50:27.343Z,63.60
2023-04-14T16:52:54.043Z,63.60
2023-04-14T16:55:20.717Z,69.03
2023-04-14T16:57:47.467Z,63.92
2023-04-14T17:00:14.501Z,68.60
2023-04-14T17:02:41.321Z,65.38
2023-04-14T17:05:10.121Z,63.70
2023-04-14T17:07:36.932Z,65.43
2023-04-14T17:10:04.052Z,76.50
2023-04-14T17:12:30.697Z,79.95
2023-04-14T17:14:57.365Z,83.40
2023-04-14T17:17:24.070Z,87.85
2023-04-14T17:19:51.216Z,86.30
2023-04-14T17:22:17.944Z,69.47
2023-04-14T17:24:45.630Z,51.15
2023-04-14T17:27:12.762Z,55.10
2023-04-14T17:29:40.976Z,50.53
2023-04-14T17:32:08.242Z,49.58
2023-04-14T17:34:35.608Z,45.15
2023-04-14T17:37:04.455Z,45.00
2023-04-14T17:39:31.327Z,46.58
2023-04-14T17:41:58.376Z,46.60
2023-04-14T17:44:36.072Z,44.72
2023-04-14T17:47:11.028Z,45.13
2023-04-14T17:49:38.208Z,46.85
2023-04-14T17:52:17.499Z,46.60
2023-04-14T17:54:45.671Z,48.88
2023-04-14T17:57:13.132Z,48.67
2023-04-14T17:59:41.428Z,48.15
2023-04-14T18:02:08.900Z,47.35
2023-04-14T18:04:36.166Z,47.95
2023-04-14T18:07:02.980Z,48.10
2023-04-14T18:09:29.626Z,49.78
2023-04-14T18:11:56.207Z,49.35
2023-04-14T18:14:22.922Z,48.70
2023-04-14T18:16:49.584Z,34.10
2023-04-14T18:19:16.364Z,32.08
2023-04-14T18:21:44.993Z,32.05
2023-04-14T18:26:42.345Z,31.10
2023-04-14T18:29:08.932Z,31.17
2023-04-14T18:31:36.253Z,30.95
2023-04-14T18:34:05.019Z,31.67
2023-04-14T18:36:32.850Z,44.53
2023-04-14T18:39:00.343Z,32.95
2023-04-14T18:41:27.307Z,32.45
2023-04-14T18:43:53.990Z,32.15
2023-04-14T18:46:21.482Z,32.42
2023-04-14T18:48:48.459Z,31.98
2023-04-14T18:51:15.931Z,32.38
2023-04-14T18:53:44.564Z,31.17
2023-04-14T18:56:11.256Z,31.10
2023-04-14T18:58:38.118Z,30.33
2023-04-14T19:01:04.800Z,30.98
2023-04-14T19:03:31.846Z,30.92
2023-04-14T19:05:59.033Z,31.30
2023-04-14T19:08:26.172Z,30.73
2023-04-14T19:10:52.849Z,30.85
2023-04-14T19:13:19.630Z,30.65
2023-04-14T19:15:46.428Z,30.33
2023-04-14T19:18:13.092Z,29.95
2023-04-14T19:20:39.724Z,31.52
2023-04-14T19:23:06.385Z,29.88
2023-04-14T19:25:34.887Z,29.10
2023-04-14T19:28:02.147Z,29.85
2023-04-14T19:30:29.092Z,29.13
2023-04-14T19:32:55.908Z,29.17
2023-04-14T19:35:23.396Z,28.75
2023-04-14T19:37:50.488Z,29.08
2023-04-14T19:40:17.192Z,28.08
2023-04-14T19:42:43.806Z,27.17
2023-04-14T19:45:10.769Z,26.98
2023-04-14T19:47:37.490Z,27.30
2023-04-14T19:50:04.531Z,26.80
2023-04-14T19:52:31.161Z,27.83
2023-04-14T19:54:58.068Z,27.55
2023-04-14T19:57:24.805Z,28.15
2023-04-14T19:59:51.414Z,28.02
2023-04-14T20:02:18.931Z,27.75
2023-04-14T20:04:46.827Z,28.08
2023-04-14T20:07:13.624Z,27.17
2023-04-14T20:09:44.848Z,27.50
2023-04-14T20:12:11.575Z,26.52
2023-04-14T20:14:38.891Z,27.10
2023-04-14T20:17:05.766Z,27.23
2023-04-14T20:19:32.870Z,27.90
2023-04-14T20:21:59.538Z,27.58
2023-04-14T20:24:26.140Z,28.40
2023-04-14T20:26:53.114Z,28.17
2023-04-14T20:29:19.933Z,28.08
2023-04-14T20:31:46.736Z,28.15
2023-04-14T20:34:13.481Z,27.30
2023-04-14T20:36:40.308Z,28.05
2023-04-14T20:39:06.959Z,27.35
2023-04-14T20:41:34.588Z,29.10
2023-04-14T20:44:03.286Z,28.38
2023-04-14T20:46:30.208Z,27.88
2023-04-14T20:48:56.951Z,27.10
2023-04-14T20:51:23.727Z,26.10
2023-04-14T20:53:50.645Z,28.55
2023-04-14T20:56:17.656Z,26.05
2023-04-14T20:58:45.455Z,26.38
2023-04-14T21:01:12.459Z,26.48
2023-04-14T21:03:39.621Z,26.38
2023-04-14T21:06:06.559Z,25.63
2023-04-14T21:08:33.386Z,24.70
2023-04-14T21:11:14.685Z,25.65
2023-04-14T21:15:30.285Z,25.05
2023-04-14T21:16:30.697Z,23.52
2023-04-14T21:18:57.393Z,24.30
2023-04-14T21:21:24.145Z,24.50
2023-04-14T21:23:50.808Z,23.25
2023-04-14T21:26:17.748Z,24.20
2023-04-14T21:28:44.563Z,26.05
2023-04-14T21:31:11.381Z,26.48
2023-04-14T21:33:39.803Z,25.65
2023-04-14T21:36:06.950Z,27.38
2023-04-14T21:38:33.719Z,37.35
2023-04-14T21:41:00.685Z,45.63
2023-04-14T21:43:27.385Z,38.63
2023-04-14T21:45:54.296Z,30.42
2023-04-14T21:48:21.121Z,29.23
2023-04-14T21:50:47.804Z,27.17
2023-04-14T21:53:14.500Z,26.90
2023-04-14T21:55:41.908Z,25.17
2023-04-14T21:58:08.958Z,23.35
2023-04-14T22:00:36.993Z,21.38
2023-04-14T22:03:04.378Z,22.65
2023-04-14T22:05:31.152Z,20.33
2023-04-14T22:07:57.741Z,20.45
2023-04-14T22:10:31.508Z,20.88
2023-04-14T22:13:01.128Z,20.75
2023-04-14T22:15:27.851Z,20.27
2023-04-14T22:17:54.651Z,21.08
2023-04-14T22:20:23.116Z,19.98
2023-04-14T22:22:49.702Z,20.38
2023-04-14T22:25:16.615Z,21.65
2023-04-14T22:27:43.256Z,20.80
2023-04-14T22:30:10.742Z,20.75
2023-04-14T22:32:37.412Z,21.25
2023-04-14T22:35:04.627Z,24.50
2023-04-14T22:37:31.669Z,27.50
2023-04-14T22:39:59.809Z,26.38
2023-04-14T22:42:27.567Z,25.13
2023-04-14T22:44:54.385Z,23.95
2023-04-14T22:47:21.329Z,24.15
2023-04-14T22:49:48.075Z,24.92
2023-04-14T22:52:14.681Z,24.30
2023-04-14T22:54:41.578Z,27.38
2023-04-14T22:57:09.046Z,26.08
2023-04-14T22:59:35.642Z,24.35
2023-04-14T23:02:02.400Z,24.48
2023-04-14T23:04:29.240Z,23.60
2023-04-14T23:06:56.069Z,22.80
2023-04-14T23:09:22.758Z,22.35
2023-04-14T23:11:49.425Z,20.40
2023-04-14T23:14:16.054Z,20.23
2023-04-14T23:16:43.614Z,20.02
2023-04-14T23:19:10.392Z,18.20
2023-04-14T23:21:36.992Z,16.20
2023-04-14T23:24:03.984Z,15.90
2023-04-14T23:26:31.025Z,17.50
2023-04-14T23:28:57.647Z,19.95
2023-04-14T23:31:24.311Z,16.35
2023-04-14T23:33:52.713Z,15.70
2023-04-14T23:36:20.012Z,22.05
2023-04-14T23:38:46.621Z,22.90
2023-04-14T23:41:13.281Z,20.95
2023-04-14T23:43:39.993Z,19.38
2023-04-14T23:46:06.639Z,18.95
2023-04-14T23:48:33.288Z,18.23
2023-04-14T23:51:12.279Z,18.52
2023-04-14T23:53:43.523Z,18.52
2023-04-14T23:56:10.478Z,18.75
2023-04-14T23:58:37.143Z,19.35
